LFATLFPM

Guest
Details From LFAT - Le Touquet Paris Plage
To LFPM - Melun Villaroche
Flight Number -
Tags generated
Created
Modified
Stats Distance 122 nm / 225 km
Max Altitude 8,700 ft / 2,652 m
Waypoints 3
Social Downloads 0
Likes 0
Share VATSIM

Download

Looking for another format? Having issues loading an existing format? Contact us
Advertisement - Login to hide

Notes

Basic altitude profile: - Ascent Rate: 1500ft/min - Ascent Speed: 110kts - Cruise Altitude: 110ft - Cruise Speed: 145kts - Descent Rate: 1500ft/min - Descent Speed: 145kts Options: - Use NATs: yes - Use PACOTS: yes - Use low airways: yes - Use high airways: yes

Route

LFAT ABB LFPM

ID Type Via Altitude (ft/m) Position (lat/lon) Dist (leg/tot) Name
O LFAT APT - 0 / 0 50.51586 / 1.62273 - / 0 nm Le Touquet Paris Plage
ABB VOR - 8,700 / 2,652 50.13514 / 1.85469 24 / 24 nm ABBEVILLE VOR-DME
O LFPM APT - 0 / 0 48.60812 / 2.67460 97 / 121 nm Melun Villaroche

Altitude Profile

Advertisement - Login to hide

LFAT

Details ICAO LFAT (LTQ)
Name Le Touquet Paris Plage
Region France
Timezone Europe/Paris (UTC+2.0)
Stats Elevation 35 ft / 11 m (AMSL)
Location 50.515900° 1.622730°
Runways 2
Magnetic Variation 0.352° E

METAR

LFAT 160530Z AUTO 13005KT CAVOK 12/10 Q1016 NOSIG

Decode

TAF

Not found

Departure Runways

ID Width Length Bearing (true/mag) Surface Threshold Overrun Markings Lighting
07 120 ft / 37 m 1,949 ft / 594 m 60.65° / 60.30° ASPHALT 0 ft / 0 m 0 ft / 0 m NONE
14 131 ft / 40 m 6,050 ft / 1,844 m 133.54° / 133.19° ASPHALT 0 ft / 0 m 0 ft / 0 m APP CENTERLINE EDGE THRESHOLD RAIL REIL-OMNI
25 120 ft / 37 m 1,949 ft / 594 m 240.66° / 240.30° ASPHALT 750 ft / 229 m 0 ft / 0 m APP
32 131 ft / 40 m 6,050 ft / 1,844 m 313.56° / 313.20° ASPHALT 492 ft / 150 m 0 ft / 0 m APP CENTERLINE EDGE THRESHOLD REIL-OMNI

LFPM

Details ICAO LFPM
Name Melun Villaroche
Region France
Timezone Europe/Paris (UTC+2.0)
Stats Elevation 300 ft / 91 m (AMSL)
Location 48.608100° 2.674680°
Runways 2
Magnetic Variation 0.811° E

METAR

LFPM 160530Z AUTO 07002KT CAVOK 14/09 Q1016

Decode

TAF

Not found

Destination Runways

ID Width Length Bearing (true/mag) Surface Threshold Overrun Markings Lighting
01 98 ft / 30 m 4,268 ft / 1,301 m 12.71° / 11.90° ASPHALT 0 ft / 0 m 656 ft / 200 m APP
10 148 ft / 45 m 6,455 ft / 1,968 m 103.53° / 102.72° ASPHALT 0 ft / 0 m 2,730 ft / 832 m APP EDGE THRESHOLD
19 98 ft / 30 m 4,268 ft / 1,301 m 192.71° / 191.90° ASPHALT 0 ft / 0 m 2,034 ft / 620 m APP
28 148 ft / 45 m 6,455 ft / 1,968 m 283.55° / 282.74° ASPHALT 279 ft / 85 m 0 ft / 0 m PREC-APP EDGE THRESHOLD REIL-OMNI

Approach Navaids

Runway Type Ident Frequency Range Bearing (true/mag) Slope Elevation
28 DME MV 111.55 MHz 18 nm / 33 km - - 302 ft / 92 m (AMSL)
28 GS MV 111.55 MHz 10 nm / 19 km 284.08° / 283.27 ° 3.00° 302 ft / 92 m (AMSL)
28 LOC-ILS MV 111.55 MHz 18 nm / 33 km 283.52° / 282.71 ° - 302 ft / 92 m (AMSL)

Popular Alternatives